.
WxDataArchive / Data Records for 2009-12-08
2009-12-07 December 2009 2009-12-09

Data Records for Tuesday, 08 December 2009

Time	Temp	Chill	HIndex	Humid	Dewpt	 Wind 	HiWind	WindDir	Rain 	Barom 
-----	----	-----	------	-----	-----	------	------	-------	-----	----- 
00:00	25.0	25.0	25.0	92	23.0	0	0	---	0.00	30.328 
00:05	25.0	25.0	25.0	92	23.0	0	0	---	0.00	30.328 
00:10	25.0	25.0	25.0	92	23.0	0	0	---	0.00	30.328 
00:15	24.8	24.8	24.8	92	22.8	0	0	---	0.00	30.320 
00:20	24.8	24.8	24.8	92	22.8	0	0	---	0.00	30.320 
00:25	24.7	24.7	24.7	92	22.7	0	0	---	0.00	30.320 
00:30	24.7	24.7	24.7	92	22.7	0	0	---	0.00	30.317 
00:35	24.7	24.7	24.7	92	22.7	0	0	---	0.00	30.317 
00:40	24.7	24.7	24.7	92	22.7	0	0	---	0.00	30.317 
00:45	24.8	24.8	24.8	92	22.8	0	0	---	0.00	30.319 
00:50	24.8	24.8	24.8	92	22.8	0	0	---	0.00	30.319 
00:55	24.8	24.8	24.8	92	22.8	0	0	---	0.00	30.319 
01:00	24.8	24.8	24.8	92	22.8	0	0	---	0.00	30.320 
01:05	24.8	24.8	24.8	92	22.8	0	0	---	0.00	30.320 
01:10	24.8	24.8	24.8	92	22.8	0	0	---	0.00	30.320 
01:15	24.8	24.8	24.8	92	22.8	0	0	---	0.00	30.318 
01:20	24.8	24.8	24.8	92	22.8	0	0	---	0.00	30.318 
01:25	24.8	24.8	24.8	92	22.8	0	0	---	0.00	30.318 
01:30	24.8	24.8	24.8	92	22.8	0	0	---	0.00	30.316 
01:35	24.8	24.8	24.8	92	22.8	0	0	---	0.00	30.316 
01:40	24.8	24.8	24.8	92	22.8	0	0	---	0.00	30.316 
01:45	24.8	24.8	24.8	92	22.8	0	0	---	0.00	30.315 
01:50	24.7	24.7	24.7	92	22.7	0	0	---	0.00	30.315 
01:55	24.7	24.7	24.7	92	22.7	0	0	---	0.00	30.315 
02:00	24.7	24.7	24.7	92	22.7	0	0	---	0.00	30.313 
02:05	24.7	24.7	24.7	92	22.7	0	0	---	0.00	30.313 
02:10	24.7	24.7	24.7	92	22.7	0	0	---	0.00	30.313 
02:15	24.5	24.5	24.5	92	22.5	0	0	---	0.00	30.313 
02:20	24.5	24.5	24.5	92	22.5	0	0	---	0.00	30.313 
02:25	24.4	24.4	24.4	92	22.4	0	0	---	0.00	30.313 
02:30	24.4	24.4	24.4	92	22.4	0	0	---	0.00	30.313 
02:35	24.2	24.2	24.2	92	22.2	0	0	---	0.00	30.313 
02:40	24.2	24.2	24.2	92	22.2	0	0	---	0.00	30.313 
02:45	24.1	24.1	24.1	92	22.1	0	0	---	0.00	30.314 
02:50	24.1	24.1	24.1	92	22.1	0	0	---	0.00	30.314 
02:55	23.9	23.9	23.9	92	21.9	0	0	---	0.00	30.314 
03:00	23.8	23.8	23.8	92	21.8	0	0	---	0.00	30.305 
03:05	23.6	23.6	23.6	92	21.6	0	0	---	0.00	30.305 
03:10	23.5	23.5	23.5	92	21.5	0	0	---	0.00	30.305 
03:15	23.3	23.3	23.3	92	21.3	0	0	---	0.00	30.318 
03:20	23.2	23.2	23.2	92	21.2	0	0	---	0.00	30.318 
03:25	23.2	23.2	23.2	92	21.2	0	0	---	0.00	30.318 
03:30	23.0	23.0	23.0	92	21.0	0	0	---	0.00	30.320 
03:35	23.0	23.0	23.0	92	21.0	0	0	---	0.00	30.320 
03:40	23.0	23.0	23.0	92	21.0	0	0	---	0.00	30.320 
03:45	23.0	23.0	23.0	92	21.0	0	0	---	0.00	30.319 
03:50	23.0	23.0	23.0	92	21.0	0	0	---	0.00	30.319 
03:55	23.0	23.0	23.0	92	21.0	0	0	---	0.00	30.319 
04:00	23.2	23.2	23.2	93	21.5	0	0	---	0.00	30.317 
04:05	23.5	23.5	23.5	93	21.8	0	1	248	0.00	30.317 
04:10	23.6	23.6	23.6	93	21.9	0	0	---	0.00	30.317 
04:15	23.9	23.9	23.9	93	22.2	0	2	248	0.00	30.305 
04:20	24.1	24.1	24.1	93	22.4	0	1	248	0.00	30.305 
04:25	24.2	24.2	24.2	93	22.5	0	0	---	0.00	30.305 
04:30	24.2	24.2	24.2	93	22.5	0	0	---	0.00	30.311 
04:35	24.1	24.1	24.1	93	22.4	0	0	---	0.00	30.311 
04:40	24.1	24.1	24.1	93	22.4	0	0	---	0.00	30.311 
04:45	24.2	24.2	24.2	93	22.5	0	0	---	0.00	30.317 
04:50	24.2	24.2	24.2	93	22.5	0	0	---	0.00	30.317 
04:55	24.2	24.2	24.2	93	22.5	0	0	---	0.00	30.317 
05:00	24.4	24.4	24.4	93	22.7	0	0	---	0.00	30.319 
05:05	24.4	24.4	24.4	93	22.7	0	0	---	0.00	30.319 
05:10	24.5	24.5	24.5	93	22.8	0	0	---	0.00	30.319 
05:15	24.7	24.7	24.7	93	23.0	0	1	248	0.00	30.314 
05:20	24.7	24.7	24.7	93	23.0	0	1	248	0.00	30.314 
05:25	24.7	24.7	24.7	93	23.0	0	0	---	0.00	30.314 
05:30	24.7	24.7	24.7	93	23.0	0	0	---	0.00	30.316 
05:35	24.7	24.7	24.7	93	23.0	0	0	---	0.00	30.316 
05:40	24.7	24.7	24.7	93	23.0	0	0	---	0.00	30.316 
05:45	24.7	24.7	24.7	93	23.0	0	0	---	0.00	30.330 
05:50	24.7	24.7	24.7	93	23.0	0	0	---	0.00	30.330 
05:55	24.5	24.5	24.5	93	22.8	0	0	---	0.00	30.330 
06:00	24.5	24.5	24.5	93	22.8	0	0	---	0.00	30.334 
06:05	24.5	24.5	24.5	93	22.8	0	0	---	0.00	30.334 
06:10	24.5	24.5	24.5	93	22.8	0	0	---	0.00	30.334 
06:15	24.5	24.5	24.5	93	22.8	0	0	---	0.00	30.337 
06:20	24.5	24.5	24.5	93	22.8	0	0	---	0.00	30.337 
06:25	24.7	24.7	24.7	93	23.0	0	0	---	0.00	30.337 
06:30	24.7	24.7	24.7	93	23.0	0	0	---	0.00	30.337 
06:35	24.7	24.7	24.7	93	23.0	0	0	---	0.00	30.337 
06:40	24.7	24.7	24.7	93	23.0	0	0	---	0.00	30.337 
06:45	24.7	24.7	24.7	93	23.0	0	0	---	0.00	30.333 
06:50	24.7	24.7	24.7	93	23.0	0	0	---	0.00	30.333 
06:55	24.7	24.7	24.7	93	23.0	0	0	---	0.00	30.333 
07:00	24.7	24.7	24.7	93	23.0	0	0	---	0.00	30.329 
07:05	24.7	24.7	24.7	93	23.0	0	0	---	0.00	30.329 
07:10	24.7	24.7	24.7	93	23.0	0	0	---	0.00	30.329 
07:15	24.7	24.7	24.7	93	23.0	0	0	---	0.00	30.333 
07:20	24.7	24.7	24.7	93	23.0	0	0	---	0.00	30.333 
07:25	24.8	24.8	24.8	93	23.1	0	0	---	0.00	30.333 
07:30	25.0	25.0	25.0	93	23.3	0	0	---	0.00	30.331 
07:35	25.1	25.1	25.1	93	23.4	0	0	---	0.00	30.331 
07:40	25.3	25.3	25.3	93	23.6	0	0	---	0.00	30.331 
07:45	25.3	25.3	25.3	93	23.6	0	0	---	0.00	30.329 
07:50	25.4	25.4	25.4	93	23.7	0	0	---	0.00	30.329 
07:55	25.6	25.6	25.6	93	23.9	0	0	---	0.00	30.329 
08:00	25.7	25.7	25.7	93	24.0	0	1	248	0.00	30.325 
08:05	25.8	25.8	25.8	93	24.1	0	1	248	0.00	30.325 
08:10	26.0	26.0	26.0	93	24.3	0	1	248	0.00	30.325 
08:15	26.0	26.0	26.0	93	24.3	0	2	248	0.00	30.321 
08:20	26.1	26.1	26.1	93	24.4	0	2	248	0.00	30.321 
08:25	26.1	26.1	26.1	93	24.4	0	2	248	0.00	30.321 
08:30	26.3	26.3	26.3	93	24.6	0	3	248	0.00	30.317 
08:35	26.4	26.4	26.4	93	24.7	1	2	248	0.00	30.317 
08:40	26.4	26.4	26.4	93	24.7	0	2	248	0.00	30.317 
08:45	26.6	26.6	26.6	93	24.9	0	2	248	0.00	30.305 
08:50	26.6	26.6	26.6	93	24.9	1	2	248	0.00	30.305 
08:55	26.9	26.9	26.9	93	25.2	1	2	135	0.00	30.305 
09:00	27.0	27.0	27.0	93	25.3	2	4	90	0.00	30.297 
09:05	27.2	27.2	27.2	93	25.4	1	2	90	0.00	30.297 
09:10	27.3	27.3	27.3	92	25.3	2	4	90	0.00	30.297 
09:15	27.5	27.5	27.5	92	25.5	2	5	90	0.00	30.280 
09:20	27.6	27.6	27.6	92	25.6	2	4	112	0.00	30.280 
09:25	27.8	27.8	27.8	92	25.8	2	3	112	0.00	30.280 
09:30	28.1	28.1	28.1	92	26.1	1	4	68	0.00	30.286 
09:35	28.4	28.4	28.4	91	26.1	1	4	90	0.00	30.286 
09:40	28.5	28.5	28.5	91	26.2	1	3	90	0.00	30.286 
09:45	28.7	28.7	28.7	90	26.1	1	3	90	0.00	30.279 
09:50	28.8	28.8	28.8	90	26.2	2	4	90	0.00	30.279 
09:55	29.0	29.0	29.0	89	26.2	2	6	90	0.00	30.279 
10:00	29.0	29.0	29.0	89	26.2	2	6	90	0.00	30.258 
10:05	29.1	29.1	29.1	89	26.3	2	6	90	0.00	30.258 
10:10	29.1	29.1	29.1	89	26.3	3	7	112	0.00	30.258 
10:15	29.3	29.3	29.3	89	26.5	2	5	112	0.00	30.253 
10:20	29.4	29.4	29.4	89	26.6	1	5	112	0.00	30.253 
10:25	29.5	29.5	29.5	89	26.7	2	4	112	0.00	30.253 
10:30	29.8	29.8	29.8	89	27.0	2	5	112	0.00	30.252 
10:35	30.0	30.0	30.0	88	26.9	2	4	112	0.00	30.252 
10:40	30.1	30.1	30.1	88	27.0	2	5	90	0.00	30.252 
10:45	30.3	30.3	30.3	88	27.2	2	4	112	0.00	30.252 
10:50	30.4	30.4	30.4	88	27.3	2	4	112	0.00	30.252 
10:55	30.6	30.6	30.6	88	27.5	3	7	112	0.00	30.252 
11:00	30.7	30.7	30.7	88	27.6	2	6	112	0.00	30.238 
11:05	30.7	30.7	30.7	88	27.6	3	9	112	0.00	30.238 
11:10	30.9	30.9	30.9	88	27.8	1	6	112	0.00	30.238 
11:15	30.9	30.9	30.9	88	27.8	1	4	112	0.00	30.239 
11:20	31.0	31.0	31.0	88	27.9	1	4	112	0.00	30.239 
11:25	31.2	31.2	31.2	88	28.1	3	6	112	0.00	30.239 
11:30	31.2	31.2	31.2	87	27.8	3	7	112	0.00	30.218 
11:35	31.3	31.3	31.3	87	27.9	2	5	112	0.00	30.218 
11:40	31.5	31.5	31.5	87	28.1	1	5	112	0.00	30.218 
11:45	31.5	31.5	31.5	87	28.1	2	5	90	0.00	30.195 
11:50	31.5	31.5	31.5	86	27.8	3	6	112	0.00	30.195 
11:55	31.6	27.6	31.6	87	28.2	4	7	90	0.00	30.195 
12:00	31.6	31.6	31.6	87	28.2	2	7	90	0.00	30.174 
12:05	31.6	31.6	31.6	86	27.9	3	10	90	0.00	30.174 
12:10	31.6	31.6	31.6	86	27.9	3	7	112	0.00	30.174 
12:15	31.6	27.6	31.6	86	27.9	4	7	90	0.00	30.164 
12:20	31.8	27.8	31.8	86	28.1	4	9	112	0.00	30.164 
12:25	31.8	27.8	31.8	86	28.1	4	8	112	0.00	30.164 
12:30	31.9	31.9	31.9	86	28.2	3	5	90	0.00	30.156 
12:35	32.1	28.2	32.1	86	28.4	4	9	112	0.00	30.156 
12:40	32.1	28.2	32.1	86	28.4	4	9	112	0.00	30.156 
12:45	32.2	27.3	32.2	86	28.5	5	10	112	0.00	30.147 
12:50	32.4	32.4	32.4	86	28.7	2	7	112	0.00	30.147 
12:55	32.5	32.5	32.5	85	28.5	1	4	90	0.00	30.147 
13:00	32.7	32.7	32.7	85	28.7	3	8	112	0.00	30.155 
13:05	32.7	32.7	32.7	85	28.7	3	6	90	0.00	30.155 
13:10	32.9	32.9	32.9	86	29.2	3	7	90	0.00	30.155 
13:15	32.9	32.9	32.9	85	28.9	2	7	112	0.00	30.142 
13:20	33.1	33.1	33.1	85	29.1	2	4	112	0.01	30.142 
13:25	33.2	33.2	33.2	84	28.9	3	6	112	0.00	30.142 
13:30	33.2	33.2	33.2	84	28.9	3	7	112	0.00	30.118 
13:35	33.4	29.7	33.4	84	29.1	4	10	90	0.00	30.118 
13:40	33.4	29.7	33.4	84	29.1	4	9	112	0.00	30.118 
13:45	33.5	29.8	33.5	84	29.2	4	6	90	0.00	30.102 
13:50	33.5	29.8	33.5	83	28.9	4	12	112	0.00	30.102 
13:55	33.5	28.8	33.5	83	28.9	5	12	90	0.00	30.102 
14:00	33.5	28.0	33.5	83	28.9	6	12	90	0.00	30.075 
14:05	33.5	28.0	33.5	82	28.6	6	12	112	0.00	30.075 
14:10	33.5	28.0	33.5	82	28.6	6	11	112	0.00	30.075 
14:15	33.5	28.8	33.5	82	28.6	5	11	90	0.00	30.047 
14:20	33.5	28.8	33.5	82	28.6	5	11	90	0.00	30.047 
14:25	33.7	29.1	33.7	81	28.5	5	12	112	0.00	30.047 
14:30	33.7	28.3	33.7	81	28.5	6	12	112	0.00	30.031 
14:35	33.7	30.0	33.7	82	28.8	4	10	90	0.00	30.031 
14:40	33.7	30.0	33.7	81	28.5	4	11	112	0.00	30.031 
14:45	33.7	30.0	33.7	81	28.5	4	8	112	0.00	30.025 
14:50	33.5	27.3	33.5	81	28.3	7	15	90	0.00	30.025 
14:55	33.5	28.8	33.5	81	28.3	5	10	112	0.00	30.025 
15:00	33.7	29.1	33.7	81	28.5	5	9	90	0.00	30.015 
15:05	33.7	29.1	33.7	81	28.5	5	12	112	0.00	30.015 
15:10	33.7	28.3	33.7	81	28.5	6	10	112	0.00	30.015 
15:15	33.7	28.3	33.7	81	28.5	6	12	112	0.00	30.002 
15:20	33.5	28.0	33.5	81	28.3	6	12	112	0.00	30.002 
15:25	33.5	28.0	33.5	82	28.6	6	13	112	0.00	30.002 
15:30	33.5	28.0	33.5	82	28.6	6	13	112	0.00	29.993 
15:35	33.4	28.7	33.4	83	28.8	5	10	90	0.00	29.993 
15:40	33.4	27.9	33.4	83	28.8	6	14	90	0.00	29.993 
15:45	33.2	27.7	33.2	83	28.6	6	14	112	0.00	29.976 
15:50	33.2	28.5	33.2	83	28.6	5	10	90	0.00	29.976 
15:55	33.2	26.9	33.2	84	28.9	7	11	112	0.00	29.976 
16:00	33.1	28.4	33.1	84	28.8	5	9	90	0.00	29.953 
16:05	33.1	28.4	33.1	84	28.8	5	11	90	0.00	29.953 
16:10	32.9	27.3	32.9	85	28.9	6	13	112	0.00	29.953 
16:15	32.8	27.2	32.8	85	28.8	6	12	90	0.00	29.950 
16:20	32.8	28.0	32.8	86	29.1	5	13	112	0.00	29.950 
16:25	32.8	29.0	32.8	87	29.4	4	11	90	0.00	29.950 
16:30	32.7	27.9	32.7	87	29.3	5	12	90	0.00	29.947 
16:35	32.5	28.7	32.5	88	29.3	4	9	112	0.00	29.947 
16:40	32.5	27.7	32.5	88	29.3	5	11	112	0.00	29.947 
16:45	32.5	27.7	32.5	88	29.3	5	11	112	0.00	29.919 
16:50	32.4	26.7	32.4	89	29.5	6	15	90	0.00	29.919 
16:55	32.5	27.7	32.5	89	29.6	5	11	90	0.00	29.919 
17:00	32.4	26.0	32.4	88	29.3	7	15	90	0.00	29.909 
17:05	32.4	26.7	32.4	88	29.3	6	14	112	0.00	29.909 
17:10	32.4	26.7	32.4	88	29.3	6	16	90	0.00	29.909 
17:15	32.4	27.5	32.4	88	29.3	5	12	112	0.00	29.893 
17:20	32.4	26.0	32.4	88	29.3	7	16	90	0.00	29.893 
17:25	32.4	26.0	32.4	88	29.3	7	14	112	0.00	29.893 
17:30	32.4	26.0	32.4	88	29.3	7	17	112	0.00	29.888 
17:35	32.4	26.0	32.4	88	29.3	7	15	112	0.00	29.888 
17:40	32.4	26.7	32.4	88	29.3	6	19	112	0.00	29.888 
17:45	32.4	26.7	32.4	87	29.0	6	14	90	0.00	29.851 
17:50	32.5	26.8	32.5	87	29.1	6	13	112	0.00	29.851 
17:55	32.5	26.8	32.5	87	29.1	6	15	90	0.00	29.851 
18:00	32.5	27.7	32.5	86	28.8	5	13	112	0.00	29.870 
18:05	32.7	27.1	32.7	86	29.0	6	11	112	0.00	29.870 
18:10	32.5	26.8	32.5	86	28.8	6	12	112	0.00	29.870 
18:15	32.5	26.8	32.5	86	28.8	6	13	112	0.00	29.856 
18:20	32.4	26.7	32.4	87	29.0	6	16	90	0.00	29.856 
18:25	32.4	26.0	32.4	86	28.7	7	14	112	0.00	29.856 
18:30	32.4	27.5	32.4	87	29.0	5	12	112	0.00	29.841 
18:35	32.4	26.0	32.4	86	28.7	7	14	90	0.00	29.841 
18:40	32.4	26.7	32.4	86	28.7	6	13	112	0.00	29.841 
18:45	32.4	28.5	32.4	86	28.7	4	12	90	0.00	29.825 
18:50	32.2	28.3	32.2	86	28.5	4	10	112	0.00	29.825 
18:55	32.4	27.5	32.4	86	28.7	5	17	112	0.00	29.825 
19:00	32.4	27.5	32.4	85	28.4	5	13	90	0.00	29.817 
19:05	32.4	26.0	32.4	84	28.1	7	15	112	0.00	29.817 
19:10	32.5	28.7	32.5	84	28.2	4	10	112	0.00	29.817 
19:15	32.5	28.7	32.5	84	28.2	4	19	112	0.00	29.818 
19:20	32.5	28.7	32.5	84	28.2	4	9	112	0.00	29.818 
19:25	32.5	28.7	32.5	85	28.5	4	9	90	0.00	29.818 
19:30	32.5	28.7	32.5	85	28.5	4	12	90	0.00	29.826 
19:35	32.4	26.0	32.4	85	28.4	7	16	90	0.00	29.826 
19:40	32.4	28.5	32.4	86	28.7	4	11	90	0.00	29.826 
19:45	32.2	28.3	32.2	87	28.8	4	10	90	0.00	29.827 
19:50	32.1	28.2	32.1	88	29.0	4	12	90	0.00	29.827 
19:55	31.8	26.8	31.8	89	28.9	5	10	112	0.00	29.827 
20:00	31.6	27.6	31.6	90	29.0	4	7	112	0.00	29.823 
20:05	31.5	27.5	31.5	91	29.2	4	7	112	0.00	29.823 
20:10	31.5	26.5	31.5	92	29.4	5	10	90	0.00	29.823 
20:15	31.3	26.3	31.3	92	29.3	5	11	90	0.00	29.791 
20:20	31.3	26.3	31.3	93	29.5	5	9	112	0.00	29.791 
20:25	31.3	26.3	31.3	93	29.5	5	9	112	0.00	29.791 
20:30	31.3	26.3	31.3	93	29.5	5	10	112	0.00	29.755 
20:35	31.3	24.7	31.3	93	29.5	7	12	112	0.00	29.755 
20:40	31.2	25.3	31.2	94	29.7	6	16	90	0.00	29.755 
20:45	31.2	25.3	31.2	94	29.7	6	13	90	0.00	29.728 
20:50	31.2	25.3	31.2	94	29.7	6	12	90	0.00	29.728 
20:55	31.2	23.9	31.2	94	29.7	8	17	90	0.00	29.728 
21:00	31.2	23.9	31.2	94	29.7	8	15	90	0.00	29.666 
21:05	31.3	23.4	31.3	94	29.8	9	18	112	0.00	29.666 
21:10	31.5	24.2	31.5	94	30.0	8	18	90	0.00	29.666 
21:15	31.5	25.6	31.5	95	30.2	6	13	90	0.00	29.655 
21:20	31.6	25.0	31.6	95	30.3	7	13	90	0.00	29.655 
21:25	31.8	24.6	31.8	95	30.5	8	16	90	0.00	29.655 
21:30	31.8	24.6	31.8	95	30.5	8	17	90	0.00	29.615 
21:35	31.8	25.3	31.8	95	30.5	7	16	90	0.00	29.615 
21:40	31.9	25.4	31.9	95	30.6	7	18	112	0.00	29.615 
21:45	31.9	24.7	31.9	95	30.6	8	15	90	0.00	29.572 
21:50	32.1	25.0	32.1	95	30.8	8	15	112	0.00	29.572 
21:55	32.1	24.4	32.1	95	30.8	9	19	112	0.00	29.572 
22:00	32.2	24.5	32.2	95	30.9	9	15	112	0.00	29.553 
22:05	32.2	25.7	32.2	95	30.9	7	16	90	0.00	29.553 
22:10	32.4	25.3	32.4	95	31.1	8	15	112	0.00	29.553 
22:15	32.4	25.3	32.4	95	31.1	8	14	90	0.00	29.536 
22:20	32.5	25.5	32.5	95	31.2	8	15	112	0.00	29.536 
22:25	32.5	26.1	32.5	95	31.2	7	13	112	0.00	29.536 
22:30	32.5	26.1	32.5	95	31.2	7	17	112	0.00	29.519 
22:35	32.7	26.3	32.7	95	31.4	7	15	112	0.00	29.519 
22:40	32.7	27.1	32.7	95	31.4	6	14	90	0.00	29.519 
22:45	32.8	26.5	32.8	95	31.5	7	17	112	0.00	29.502 
22:50	32.8	27.2	32.8	95	31.5	6	12	112	0.00	29.502 
22:55	32.8	26.5	32.8	95	31.5	7	12	112	0.00	29.502 
23:00	32.8	26.5	32.8	95	31.5	7	15	112	0.00	29.480 
23:05	32.9	26.6	32.9	95	31.6	7	17	90	0.00	29.480 
23:10	32.9	26.6	32.9	95	31.6	7	15	90	0.00	29.480 
23:15	32.9	27.3	32.9	95	31.6	6	12	112	0.00	29.467 
23:20	32.9	27.3	32.9	95	31.6	6	13	90	0.00	29.467 
23:25	33.1	26.8	33.1	95	31.8	7	13	90	0.00	29.467 
23:30	33.1	27.5	33.1	95	31.8	6	14	112	0.00	29.450 
23:35	33.1	27.5	33.1	95	31.8	6	16	90	0.00	29.450 
23:40	33.2	26.9	33.2	95	31.9	7	12	112	0.00	29.450 
23:45	33.2	26.9	33.2	95	31.9	7	13	90	0.00	29.424 
23:50	33.2	28.5	33.2	95	31.9	5	13	112	0.00	29.424 
23:55	33.2	28.5	33.2	95	31.9	5	12	90	0.00	29.424 

CoCoRaHS
IN-AL-39
A2 Web Hosting
Creative Commons License
GoDaddy
search engine by freefind advanced

loaded 2018-11-15 05:07:48 • last modified 2010-11-18 10:43:29
Privacy PolicyDisclaimer
• wx.awcolley.com is powered by PmWiki v.2002016 •
• all content (unless otherwise noted) © 2018 A W Colley